createdAt,value
2023-01-19T00:00:33.064Z,98667.25
2023-01-19T00:03:37.224Z,98672.22
2023-01-19T00:06:40.155Z,98667.16
2023-01-19T00:09:43.634Z,98671.47
2023-01-19T00:12:46.577Z,98680.16
2023-01-19T00:15:49.844Z,98670.72
2023-01-19T00:18:53.249Z,98669.22
2023-01-19T00:21:56.630Z,98664.47
2023-01-19T00:24:59.515Z,98658.47
2023-01-19T00:28:02.734Z,98673.78
2023-01-19T00:31:05.801Z,98676.66
2023-01-19T00:34:09.335Z,98671.91
2023-01-19T00:37:12.574Z,98676.66
2023-01-19T00:40:15.956Z,98680.47
2023-01-19T00:43:18.734Z,98680.41
2023-01-19T00:46:27.333Z,98687.09
2023-01-19T00:49:30.292Z,98680.28
2023-01-19T00:52:33.715Z,98682.59
2023-01-19T00:55:36.439Z,98678.28
2023-01-19T00:58:39.460Z,98673.50
2023-01-19T01:01:46.004Z,98678.94
2023-01-19T01:04:55.043Z,98687.88
2023-01-19T01:07:58.173Z,98686.34
2023-01-19T01:11:02.379Z,98709.44
2023-01-19T01:14:05.311Z,98695.91
2023-01-19T01:17:11.664Z,98700.22
2023-01-19T01:20:19.373Z,98709.94
2023-01-19T01:23:23.214Z,98713.91
2023-01-19T01:26:27.154Z,98720.25
2023-01-19T01:29:31.052Z,98725.75
2023-01-19T01:32:34.044Z,98726.16
2023-01-19T01:35:37.298Z,98734.94
2023-01-19T01:38:41.230Z,98726.34
2023-01-19T01:41:44.466Z,98732.22
2023-01-19T01:44:50.420Z,98732.25
2023-01-19T01:47:57.521Z,98744.59
2023-01-19T01:51:26.222Z,98745.09
2023-01-19T01:54:32.921Z,98747.06
2023-01-19T01:57:44.104Z,98743.47
2023-01-19T02:01:05.912Z,98739.91
2023-01-19T02:04:09.410Z,98749.81
2023-01-19T02:07:36.486Z,98753.09
2023-01-19T02:11:00.129Z,98772.59
2023-01-19T02:14:06.959Z,98779.88
2023-01-19T02:17:10.244Z,98790.50
2023-01-19T02:20:14.080Z,98787.28
2023-01-19T02:23:32.107Z,98793.94
2023-01-19T02:26:39.370Z,98784.84
2023-01-19T02:29:42.847Z,98755.56
2023-01-19T02:32:46.037Z,98732.00
2023-01-19T02:35:52.508Z,98753.75
2023-01-19T02:39:00.440Z,98778.41
2023-01-19T02:42:11.198Z,98774.50
2023-01-19T02:45:17.459Z,98757.06
2023-01-19T02:48:21.508Z,98762.81
2023-01-19T02:51:25.460Z,98792.56
2023-01-19T02:54:34.237Z,98812.44
2023-01-19T02:57:56.753Z,98825.50
2023-01-19T03:01:34.712Z,98825.44
2023-01-19T03:04:56.721Z,98816.25
2023-01-19T03:08:25.497Z,98812.28
2023-01-19T03:11:33.917Z,98805.69
2023-01-19T03:14:45.403Z,98805.28
2023-01-19T03:17:51.075Z,98808.88
2023-01-19T03:20:58.449Z,98808.12
2023-01-19T03:24:05.154Z,98814.88
2023-01-19T03:27:17.739Z,98824.06
2023-01-19T03:30:26.368Z,98812.91
2023-01-19T03:33:33.356Z,98819.75
2023-01-19T03:36:41.380Z,98808.75
2023-01-19T03:39:44.754Z,98797.97
2023-01-19T03:42:50.432Z,98775.56
2023-01-19T03:45:55.543Z,98775.34
2023-01-19T03:48:59.600Z,98771.63
2023-01-19T03:52:02.883Z,98772.94
2023-01-19T03:55:06.581Z,98784.84
2023-01-19T03:58:10.411Z,98777.88
2023-01-19T04:01:15.233Z,98781.03
2023-01-19T04:04:18.618Z,98796.97
2023-01-19T04:07:21.421Z,98823.47
2023-01-19T04:10:24.835Z,98822.81
2023-01-19T04:13:30.227Z,98824.06
2023-01-19T04:16:33.570Z,98823.97
2023-01-19T04:19:36.337Z,98805.09
2023-01-19T04:22:39.822Z,98797.06
2023-01-19T04:25:42.696Z,98798.66
2023-01-19T04:28:46.248Z,98808.88
2023-01-19T04:31:48.991Z,98820.72
2023-01-19T04:34:52.307Z,98803.72
2023-01-19T04:37:55.181Z,98797.50
2023-01-19T04:40:58.476Z,98791.25
2023-01-19T04:44:01.344Z,98799.94
2023-01-19T04:47:04.797Z,98786.53
2023-01-19T04:50:08.718Z,98774.94
2023-01-19T04:53:13.925Z,98757.38
2023-01-19T04:56:16.836Z,98764.53
2023-01-19T04:59:20.700Z,98750.16
2023-01-19T05:02:24.332Z,98763.44
2023-01-19T05:05:27.787Z,98774.84
2023-01-19T05:08:30.646Z,98791.72
2023-01-19T05:11:33.838Z,98805.44
2023-01-19T05:14:37.012Z,98802.81
2023-01-19T05:17:40.501Z,98806.84
2023-01-19T05:20:43.436Z,98820.09
2023-01-19T05:23:46.824Z,98821.59
2023-01-19T05:26:49.762Z,98842.78
2023-01-19T05:29:52.982Z,98856.66
2023-01-19T05:32:56.001Z,98864.06
2023-01-19T05:35:59.076Z,98858.09
2023-01-19T05:39:01.916Z,98843.03
2023-01-19T05:42:05.176Z,98851.06
2023-01-19T05:45:08.840Z,98836.59
2023-01-19T05:48:12.008Z,98844.00
2023-01-19T05:51:15.478Z,98845.44
2023-01-19T05:54:19.020Z,98840.78
2023-01-19T05:57:22.625Z,98843.78
2023-01-19T06:00:27.793Z,98826.28
2023-01-19T06:03:30.845Z,98850.44
2023-01-19T06:06:33.727Z,98820.72
2023-01-19T06:09:36.776Z,98815.94
2023-01-19T06:12:41.769Z,98827.41
2023-01-19T06:15:45.705Z,98797.28
2023-01-19T06:18:48.564Z,98800.03
2023-01-19T06:21:52.605Z,98789.13
2023-01-19T06:24:55.383Z,98777.31
2023-01-19T06:27:58.474Z,98800.94
2023-01-19T06:31:01.793Z,98798.03
2023-01-19T06:34:05.070Z,98814.00
2023-01-19T06:37:07.739Z,98850.16
2023-01-19T06:40:13.700Z,98871.97
2023-01-19T06:43:17.259Z,98859.53
2023-01-19T06:46:20.370Z,98876.84
2023-01-19T06:49:23.045Z,98872.78
2023-01-19T06:52:26.140Z,98855.56
2023-01-19T06:55:28.898Z,98853.81
2023-01-19T06:58:32.175Z,98855.81
2023-01-19T07:01:35.276Z,98843.94
2023-01-19T07:04:38.583Z,98859.88
2023-01-19T07:07:43.365Z,98842.69
2023-01-19T07:11:26.869Z,98837.56
2023-01-19T07:14:09.524Z,98823.88
2023-01-19T07:17:13.256Z,98802.06
2023-01-19T07:20:17.655Z,98825.53
2023-01-19T07:23:21.206Z,98844.34
2023-01-19T07:26:25.484Z,98856.88
2023-01-19T07:29:28.714Z,98851.41
2023-01-19T07:32:31.825Z,98856.19
2023-01-19T07:35:35.161Z,98860.88
2023-01-19T07:38:38.170Z,98855.13
2023-01-19T07:41:41.387Z,98871.13
2023-01-19T07:44:44.297Z,98865.25
2023-01-19T07:47:52.173Z,98871.97
2023-01-19T07:51:00.482Z,98855.56
2023-01-19T07:54:03.836Z,98860.88
2023-01-19T07:57:06.651Z,98874.97
2023-01-19T08:00:10.567Z,98876.59
2023-01-19T08:03:15.103Z,98864.03
2023-01-19T08:06:25.863Z,98877.38
2023-01-19T08:09:28.855Z,98869.41
2023-01-19T08:12:31.995Z,98878.09
2023-01-19T08:15:34.835Z,98886.72
2023-01-19T08:18:38.259Z,98877.44
2023-01-19T08:21:41.294Z,98860.59
2023-01-19T08:24:44.641Z,98863.41
2023-01-19T08:27:47.553Z,98862.25
2023-01-19T08:30:56.482Z,98859.91
2023-01-19T08:33:59.502Z,98862.25
2023-01-19T08:37:02.695Z,98856.44
2023-01-19T08:40:06.929Z,98879.22
2023-01-19T08:43:13.598Z,98880.47
2023-01-19T08:46:17.785Z,98880.00
2023-01-19T08:49:21.044Z,98893.25
2023-01-19T08:52:26.613Z,98899.16
2023-01-19T08:55:30.421Z,98901.91
2023-01-19T08:58:33.266Z,98909.00
2023-01-19T09:01:37.635Z,98908.19
2023-01-19T09:04:40.609Z,98907.75
2023-01-19T09:07:46.862Z,98904.22
2023-01-19T09:10:51.828Z,98913.94
2023-01-19T09:13:55.004Z,98902.63
2023-01-19T09:16:57.821Z,98885.66
2023-01-19T09:20:01.228Z,98887.63
2023-01-19T09:23:04.514Z,98894.53
2023-01-19T09:26:07.748Z,98911.63
2023-01-19T09:29:10.732Z,98920.56
2023-01-19T09:32:14.913Z,98909.88
2023-01-19T09:35:17.787Z,98905.81
2023-01-19T09:38:22.680Z,98911.53
2023-01-19T09:41:26.561Z,98921.69
2023-01-19T09:44:33.945Z,98913.03
2023-01-19T09:47:38.785Z,98919.22
2023-01-19T09:50:46.839Z,98912.97
2023-01-19T09:54:16.015Z,98925.16
2023-01-19T09:57:19.569Z,98920.69
2023-01-19T10:00:24.786Z,98901.91
2023-01-19T10:03:28.074Z,98896.06
2023-01-19T10:06:31.289Z,98889.19
2023-01-19T10:09:53.711Z,98889.19
2023-01-19T10:13:54.502Z,98886.91
2023-01-19T10:17:43.079Z,98891.16
2023-01-19T10:20:52.777Z,98890.69
2023-01-19T10:24:00.956Z,98904.94
2023-01-19T10:27:09.437Z,98898.47
2023-01-19T10:30:24.365Z,98905.88
2023-01-19T10:33:35.541Z,98908.25
2023-01-19T10:36:40.667Z,98903.69
2023-01-19T10:39:52.673Z,98906.34
2023-01-19T10:42:57.276Z,98905.19
2023-01-19T10:46:01.267Z,98905.19
2023-01-19T10:49:05.137Z,98899.38
2023-01-19T10:52:20.023Z,98893.91
2023-01-19T10:55:41.579Z,98900.53
2023-01-19T10:58:44.431Z,98906.34
2023-01-19T11:02:04.282Z,98913.03
2023-01-19T11:05:26.077Z,98917.28
2023-01-19T11:08:31.206Z,98926.25
2023-01-19T11:11:43.387Z,98926.25
2023-01-19T11:14:48.006Z,98932.19
2023-01-19T11:17:52.155Z,98932.09
2023-01-19T11:20:58.318Z,98930.62
2023-01-19T11:24:05.540Z,98932.63
2023-01-19T11:27:09.155Z,98943.56
2023-01-19T11:30:21.838Z,98945.25
2023-01-19T11:33:32.646Z,98942.63
2023-01-19T11:36:36.761Z,98939.19
2023-01-19T11:39:55.439Z,98936.09
2023-01-19T11:42:59.029Z,98934.94
2023-01-19T11:46:03.109Z,98937.59
2023-01-19T11:49:13.149Z,98938.12
2023-01-19T11:52:38.022Z,98940.84
2023-01-19T11:55:57.359Z,98937.06
2023-01-19T11:59:02.639Z,98948.47
2023-01-19T12:02:38.490Z,98960.22
2023-01-19T12:05:48.191Z,98961.62
2023-01-19T12:09:06.252Z,98958.41
2023-01-19T12:12:15.848Z,98962.75
2023-01-19T12:15:33.352Z,98970.97
2023-01-19T12:19:08.314Z,98970.53
2023-01-19T12:22:15.836Z,98985.69
2023-01-19T12:25:30.157Z,98986.31
2023-01-19T12:28:37.984Z,99003.69
2023-01-19T12:31:43.322Z,99008.97
2023-01-19T12:34:52.156Z,99017.53
2023-01-19T12:37:55.297Z,99016.72
2023-01-19T12:41:21.997Z,99011.63
2023-01-19T12:44:28.054Z,99018.66
2023-01-19T12:47:30.904Z,99020.84
2023-01-19T12:50:38.424Z,99032.03
2023-01-19T12:53:59.925Z,99030.44
2023-01-19T12:57:19.553Z,99040.47
2023-01-19T13:00:22.210Z,99041.97
2023-01-19T13:03:28.156Z,99040.03
2023-01-19T13:06:49.416Z,99047.81
2023-01-19T13:09:52.570Z,99049.63
2023-01-19T13:13:17.603Z,99060.00
2023-01-19T13:16:21.103Z,99065.03
2023-01-19T13:19:35.330Z,99071.97
2023-01-19T13:22:50.684Z,99081.66
2023-01-19T13:26:01.479Z,99089.78
2023-01-19T13:29:14.274Z,99096.38
2023-01-19T13:32:21.303Z,99095.94
2023-01-19T13:35:25.015Z,99088.31
2023-01-19T13:38:29.559Z,99097.19
2023-01-19T13:41:38.170Z,99098.22
2023-01-19T13:44:52.656Z,99113.69
2023-01-19T13:47:58.221Z,99126.91
2023-01-19T13:51:07.385Z,99127.97
2023-01-19T13:54:16.648Z,99122.00
2023-01-19T13:57:31.323Z,99126.81
2023-01-19T14:00:34.495Z,99133.75
2023-01-19T14:03:41.100Z,99134.19
2023-01-19T14:06:48.911Z,99147.53
2023-01-19T14:10:06.761Z,99148.69
2023-01-19T14:13:22.553Z,99158.12
2023-01-19T14:16:25.769Z,99153.00
2023-01-19T14:19:28.901Z,99152.66
2023-01-19T14:22:39.087Z,99147.19
2023-01-19T14:25:44.933Z,99159.72
2023-01-19T14:28:47.995Z,99153.66
2023-01-19T14:32:02.603Z,99163.59
2023-01-19T14:35:05.857Z,99151.06
2023-01-19T14:38:14.728Z,99147.87
2023-01-19T14:41:25.623Z,99143.88
2023-01-19T14:44:41.320Z,99155.72
2023-01-19T14:47:46.220Z,99178.25
2023-01-19T14:51:02.793Z,99182.94
2023-01-19T14:54:15.829Z,99181.59
2023-01-19T14:57:18.521Z,99201.50
2023-01-19T15:00:22.223Z,99203.44
2023-01-19T15:03:42.869Z,99211.97
2023-01-19T15:06:47.451Z,99200.28
2023-01-19T15:09:50.781Z,99197.06
2023-01-19T15:12:55.097Z,99188.75
2023-01-19T15:15:58.647Z,99183.50
2023-01-19T15:19:01.928Z,99191.38
2023-01-19T15:22:12.229Z,99214.00
2023-01-19T15:25:20.507Z,99239.41
2023-01-19T15:28:23.288Z,99253.06
2023-01-19T15:31:26.918Z,99242.97
2023-01-19T15:34:29.828Z,99236.34
2023-01-19T15:37:33.231Z,99228.94
2023-01-19T15:40:36.093Z,99225.75
2023-01-19T15:43:39.154Z,99238.16
2023-01-19T15:46:41.963Z,99236.78
2023-01-19T15:49:45.025Z,99245.00
2023-01-19T15:52:47.895Z,99249.47
2023-01-19T15:55:52.675Z,99249.00
2023-01-19T15:58:56.825Z,99272.00
2023-01-19T16:02:00.122Z,99279.53
2023-01-19T16:05:03.871Z,99286.69
2023-01-19T16:08:06.676Z,99290.75
2023-01-19T16:11:16.021Z,99297.50
2023-01-19T16:14:19.005Z,99305.09
2023-01-19T16:17:22.182Z,99326.28
2023-01-19T16:20:24.967Z,99321.56
2023-01-19T16:23:28.244Z,99331.16
2023-01-19T16:26:34.684Z,99345.50
2023-01-19T16:29:37.999Z,99355.16
2023-01-19T16:32:40.858Z,99366.63
2023-01-19T16:35:44.472Z,99371.62
2023-01-19T16:38:47.643Z,99371.62
2023-01-19T16:41:50.867Z,99368.87
2023-01-19T16:44:55.025Z,99393.31
2023-01-19T16:47:58.345Z,99400.09
2023-01-19T16:51:07.251Z,99408.09
2023-01-19T16:54:29.578Z,99410.72
2023-01-19T16:57:33.236Z,99414.56
2023-01-19T17:00:38.968Z,99414.56
2023-01-19T17:03:43.066Z,99420.03
2023-01-19T17:06:47.051Z,99411.38
2023-01-19T17:09:50.675Z,99412.63
2023-01-19T17:12:54.820Z,99415.72
2023-01-19T17:16:02.976Z,99414.37
2023-01-19T17:19:08.061Z,99403.47
2023-01-19T17:22:13.529Z,99401.88
2023-01-19T17:25:17.752Z,99401.44
2023-01-19T17:28:21.143Z,99386.81
2023-01-19T17:31:28.007Z,99398.37
2023-01-19T17:34:30.862Z,99410.78
2023-01-19T17:37:36.932Z,99419.59
2023-01-19T17:40:40.399Z,99430.69
2023-01-19T17:43:45.263Z,99440.34
2023-01-19T17:46:48.940Z,99441.31
2023-01-19T17:49:54.785Z,99431.53
2023-01-19T17:52:58.995Z,99443.41
2023-01-19T17:56:14.971Z,99439.41
2023-01-19T17:59:19.313Z,99436.72
2023-01-19T18:02:26.846Z,99447.66
2023-01-19T18:05:33.890Z,99457.16
2023-01-19T18:08:43.578Z,99448.97
2023-01-19T18:11:48.119Z,99458.13
2023-01-19T18:14:52.152Z,99454.28
2023-01-19T18:17:57.427Z,99462.97
2023-01-19T18:21:03.687Z,99478.91
2023-01-19T18:24:08.083Z,99472.94
2023-01-19T18:27:12.285Z,99465.56
2023-01-19T18:30:17.631Z,99475.69
2023-01-19T18:33:21.015Z,99476.81
2023-01-19T18:36:25.911Z,99481.50
2023-01-19T18:39:31.861Z,99494.00
2023-01-19T18:42:36.393Z,99489.50
2023-01-19T18:45:42.795Z,99495.78
2023-01-19T18:48:47.760Z,99492.72
2023-01-19T18:51:53.022Z,99495.91
2023-01-19T18:54:57.506Z,99505.53
2023-01-19T18:58:02.253Z,99515.50
2023-01-19T19:01:33.227Z,99522.34
2023-01-19T19:04:37.422Z,99526.06
2023-01-19T19:07:43.017Z,99526.72
2023-01-19T19:10:50.740Z,99530.59
2023-01-19T19:13:57.866Z,99534.75
2023-01-19T19:17:01.957Z,99542.59
2023-01-19T19:20:06.866Z,99536.78
2023-01-19T19:23:12.437Z,99551.25
2023-01-19T19:26:16.487Z,99555.12
2023-01-19T19:29:20.480Z,99547.41
2023-01-19T19:32:24.573Z,99560.91
2023-01-19T19:35:31.283Z,99562.66
2023-01-19T19:38:44.624Z,99563.59
2023-01-19T19:41:50.475Z,99571.94
2023-01-19T19:44:57.746Z,99571.47
2023-01-19T19:48:02.215Z,99560.19
2023-01-19T19:51:18.539Z,99564.88
2023-01-19T19:54:23.415Z,99565.66
2023-01-19T19:57:34.482Z,99556.88
2023-01-19T20:00:38.912Z,99557.66
2023-01-19T20:03:43.640Z,99554.31
2023-01-19T20:06:48.620Z,99558.03
2023-01-19T20:09:54.327Z,99556.91
2023-01-19T20:12:57.851Z,99560.59
2023-01-19T20:16:07.191Z,99557.38
2023-01-19T20:19:13.690Z,99562.84
2023-01-19T20:22:18.872Z,99557.72
2023-01-19T20:25:22.893Z,99566.06
2023-01-19T20:28:27.682Z,99554.06
2023-01-19T20:31:35.119Z,99558.25
2023-01-19T20:34:39.814Z,99565.19
2023-01-19T20:37:43.887Z,99560.03
2023-01-19T20:40:48.594Z,99567.75
2023-01-19T20:43:53.499Z,99567.53
2023-01-19T20:46:59.078Z,99565.91
2023-01-19T20:50:02.803Z,99570.59
2023-01-19T20:53:07.295Z,99562.06
2023-01-19T20:56:13.746Z,99569.59
2023-01-19T20:59:18.237Z,99570.25
2023-01-19T21:02:22.574Z,99563.53
2023-01-19T21:05:26.696Z,99565.56
2023-01-19T21:08:31.161Z,99555.78
2023-01-19T21:11:36.880Z,99562.25
2023-01-19T21:14:40.548Z,99563.03
2023-01-19T21:17:45.228Z,99569.00
2023-01-19T21:20:49.692Z,99571.22
2023-01-19T21:23:55.651Z,99569.16
2023-01-19T21:26:58.680Z,99578.44
2023-01-19T21:30:02.636Z,99566.53
2023-01-19T21:33:08.134Z,99562.53
2023-01-19T21:36:11.725Z,99549.19
2023-01-19T21:39:17.190Z,99546.16
2023-01-19T21:42:20.581Z,99555.31
2023-01-19T21:45:23.896Z,99555.00
2023-01-19T21:48:27.501Z,99563.03
2023-01-19T21:51:34.999Z,99566.41
2023-01-19T21:54:38.275Z,99568.81
2023-01-19T21:57:41.241Z,99577.81
2023-01-19T22:00:45.355Z,99584.09
2023-01-19T22:03:48.595Z,99591.16
2023-01-19T22:06:51.361Z,99586.34
2023-01-19T22:09:54.366Z,99583.31
2023-01-19T22:12:57.104Z,99588.47
2023-01-19T22:16:01.615Z,99598.88
2023-01-19T22:19:04.484Z,99605.63
2023-01-19T22:22:07.538Z,99598.59
2023-01-19T22:25:10.598Z,99585.09
2023-01-19T22:28:13.766Z,99574.34
2023-01-19T22:31:18.579Z,99581.91
2023-01-19T22:34:21.781Z,99599.84
2023-01-19T22:37:24.796Z,99636.72
2023-01-19T22:40:27.998Z,99653.53
2023-01-19T22:43:30.767Z,99656.59
2023-01-19T22:46:36.565Z,99660.00
2023-01-19T22:49:39.349Z,99668.03
2023-01-19T22:52:42.699Z,99682.66
2023-01-19T22:55:45.487Z,99696.47
2023-01-19T22:58:49.406Z,99681.84
2023-01-19T23:01:52.462Z,99678.00
2023-01-19T23:04:55.635Z,99675.44
2023-01-19T23:07:58.413Z,99666.47
2023-01-19T23:11:10.157Z,99682.81
2023-01-19T23:14:16.470Z,99671.25
2023-01-19T23:17:19.670Z,99669.50
2023-01-19T23:20:22.607Z,99657.00
2023-01-19T23:23:25.628Z,99648.66
2023-01-19T23:26:31.028Z,99634.19
2023-01-19T23:29:34.272Z,99618.78
2023-01-19T23:32:37.121Z,99604.84
2023-01-19T23:35:40.266Z,99604.03
2023-01-19T23:38:48.032Z,99600.19
2023-01-19T23:41:51.271Z,99603.22
2023-01-19T23:44:54.055Z,99609.03
2023-01-19T23:47:57.119Z,99610.78
2023-01-19T23:51:00.000Z,99606.75
2023-01-19T23:54:03.126Z,99618.78
2023-01-19T23:57:05.806Z,99626.50
